createdAt,value
2018-04-07T00:00:35.807Z,20.70
2018-04-07T00:03:03.217Z,16.00
2018-04-07T00:05:30.637Z,13.67
2018-04-07T00:07:58.038Z,11.27
2018-04-07T00:10:25.700Z,11.57
2018-04-07T00:12:53.104Z,13.80
2018-04-07T00:15:20.532Z,12.47
2018-04-07T00:17:47.930Z,12.57
2018-04-07T00:20:15.338Z,11.27
2018-04-07T00:22:42.743Z,13.90
2018-04-07T00:25:10.126Z,14.02
2018-04-07T00:27:37.535Z,12.50
2018-04-07T00:30:04.969Z,13.70
2018-04-07T00:32:32.414Z,12.93
2018-04-07T00:34:59.938Z,14.10
2018-04-07T00:37:27.359Z,12.63
2018-04-07T00:39:54.781Z,16.37
2018-04-07T00:42:22.182Z,15.20
2018-04-07T00:44:49.557Z,12.27
2018-04-07T00:47:16.990Z,11.63
2018-04-07T00:49:44.367Z,13.80
2018-04-07T00:52:11.788Z,12.10
2018-04-07T00:54:39.241Z,12.75
2018-04-07T00:57:06.682Z,12.40
2018-04-07T00:59:34.078Z,14.63
2018-04-07T01:02:01.486Z,15.30
2018-04-07T01:04:28.883Z,13.73
2018-04-07T01:06:56.273Z,16.67
2018-04-07T01:09:23.707Z,12.25
2018-04-07T01:11:51.137Z,20.13
2018-04-07T01:14:18.597Z,12.63
2018-04-07T01:16:45.989Z,12.77
2018-04-07T01:19:13.393Z,12.97
2018-04-07T01:21:40.790Z,13.73
2018-04-07T01:24:08.187Z,15.23
2018-04-07T01:26:35.585Z,14.63
2018-04-07T01:29:03.063Z,16.90
2018-04-07T01:31:31.461Z,10.88
2018-04-07T01:33:58.886Z,13.80
2018-04-07T01:36:26.341Z,12.37
2018-04-07T01:38:53.798Z,18.20
2018-04-07T01:41:21.225Z,12.23
2018-04-07T01:43:48.634Z,14.75
2018-04-07T01:46:16.034Z,13.90
2018-04-07T01:48:43.432Z,14.40
2018-04-07T01:51:10.823Z,14.15
2018-04-07T01:53:38.263Z,14.30
2018-04-07T01:56:05.699Z,15.63
2018-04-07T01:58:33.157Z,16.93
2018-04-07T02:01:00.603Z,13.93
2018-04-07T02:03:28.151Z,18.40
2018-04-07T02:05:55.546Z,13.40
2018-04-07T02:08:23.909Z,12.83
2018-04-07T02:10:51.387Z,16.52
2018-04-07T02:13:18.809Z,13.97
2018-04-07T02:15:46.197Z,15.47
2018-04-07T02:20:47.449Z,18.10
2018-04-07T02:23:14.845Z,16.80
2018-04-07T02:25:42.275Z,14.37
2018-04-07T02:28:09.731Z,20.00
2018-04-07T02:30:37.193Z,18.45
2018-04-07T02:33:04.645Z,15.20
2018-04-07T02:35:32.102Z,15.68
2018-04-07T02:37:59.553Z,16.03
2018-04-07T02:40:27.001Z,12.97
2018-04-07T02:42:54.472Z,11.45
2018-04-07T02:45:21.924Z,13.40
2018-04-07T02:47:49.378Z,12.67
2018-04-07T02:50:16.867Z,17.93
2018-04-07T02:52:44.294Z,15.10
2018-04-07T02:55:11.772Z,14.93
2018-04-07T02:57:39.211Z,13.87
2018-04-07T03:00:06.665Z,16.90
2018-04-07T03:02:34.128Z,15.35
2018-04-07T03:05:01.594Z,22.13
2018-04-07T03:07:29.025Z,15.90
2018-04-07T03:09:56.499Z,16.20
2018-04-07T03:12:23.952Z,18.77
2018-04-07T03:14:51.414Z,17.47
2018-04-07T03:17:18.870Z,19.20
2018-04-07T03:19:46.346Z,23.50
2018-04-07T03:22:13.806Z,17.80
2018-04-07T03:24:41.246Z,17.63
2018-04-07T03:27:09.457Z,18.90
2018-04-07T03:29:36.866Z,19.52
2018-04-07T03:32:05.125Z,19.20
2018-04-07T03:34:32.526Z,20.30
2018-04-07T03:36:59.928Z,20.85
2018-04-07T03:39:27.330Z,17.50
2018-04-07T03:41:54.734Z,16.83
2018-04-07T03:44:22.150Z,20.93
2018-04-07T03:46:49.587Z,16.70
2018-04-07T03:49:17.073Z,22.97
2018-04-07T03:51:44.532Z,17.65
2018-04-07T03:54:11.977Z,20.40
2018-04-07T03:56:39.431Z,17.47
2018-04-07T04:01:40.630Z,18.20
2018-04-07T04:04:08.048Z,18.23
2018-04-07T04:06:36.162Z,18.73
2018-04-07T04:09:03.582Z,20.70
2018-04-07T04:11:30.967Z,19.87
2018-04-07T04:13:58.800Z,24.47
2018-04-07T04:16:26.185Z,24.30
2018-04-07T04:18:53.641Z,19.97
2018-04-07T04:21:21.087Z,22.27
2018-04-07T04:23:48.534Z,22.55
2018-04-07T04:26:15.986Z,28.47
2018-04-07T04:28:43.456Z,24.10
2018-04-07T04:31:10.902Z,22.98
2018-04-07T04:33:38.358Z,21.60
2018-04-07T04:36:05.836Z,23.80
2018-04-07T04:38:33.266Z,23.63
2018-04-07T04:41:00.747Z,20.03
2018-04-07T04:43:28.222Z,25.03
2018-04-07T04:45:55.649Z,24.00
2018-04-07T04:48:23.116Z,22.60
2018-04-07T04:50:50.586Z,22.93
2018-04-07T04:53:18.034Z,25.27
2018-04-07T04:55:45.479Z,21.83
2018-04-07T04:58:12.937Z,26.27
2018-04-07T05:00:40.852Z,25.60
2018-04-07T05:03:08.315Z,22.00
2018-04-07T05:05:35.722Z,30.57
2018-04-07T05:08:03.191Z,24.17
2018-04-07T05:10:30.578Z,23.10
2018-04-07T05:12:58.030Z,22.40
2018-04-07T05:15:25.468Z,21.47
2018-04-07T05:17:52.928Z,22.40
2018-04-07T05:20:20.401Z,22.00
2018-04-07T05:22:47.846Z,28.67
2018-04-07T05:25:15.276Z,25.90
2018-04-07T05:27:42.749Z,22.40
2018-04-07T05:30:10.325Z,24.50
2018-04-07T05:32:37.759Z,23.40
2018-04-07T05:35:05.139Z,21.93
2018-04-07T05:37:32.586Z,21.70
2018-04-07T05:40:00.056Z,23.30
2018-04-07T05:42:27.499Z,20.80
2018-04-07T05:44:54.959Z,24.83
2018-04-07T05:47:22.401Z,24.00
2018-04-07T05:49:49.872Z,23.20
2018-04-07T05:52:17.328Z,24.60
2018-04-07T05:54:44.825Z,22.33
2018-04-07T05:57:12.242Z,23.50
2018-04-07T05:59:40.161Z,22.83
2018-04-07T06:02:07.559Z,29.63
2018-04-07T06:04:35.071Z,25.00
2018-04-07T06:07:02.483Z,24.67
2018-04-07T06:09:29.941Z,21.27
2018-04-07T06:11:57.318Z,25.67
2018-04-07T06:14:24.760Z,23.80
2018-04-07T06:16:52.226Z,20.80
2018-04-07T06:19:19.681Z,22.55
2018-04-07T06:21:47.118Z,24.53
2018-04-07T06:24:14.575Z,21.40
2018-04-07T06:26:42.044Z,22.27
2018-04-07T06:29:09.500Z,20.53
2018-04-07T06:31:36.958Z,27.40
2018-04-07T06:34:04.406Z,24.50
2018-04-07T06:36:31.856Z,19.73
2018-04-07T06:38:59.343Z,22.03
2018-04-07T06:41:26.885Z,22.10
2018-04-07T06:43:54.353Z,18.65
2018-04-07T06:46:21.860Z,22.13
2018-04-07T06:48:49.277Z,20.95
2018-04-07T06:51:16.733Z,22.40
2018-04-07T06:53:44.140Z,23.80
2018-04-07T06:56:12.306Z,18.83
2018-04-07T06:58:39.716Z,24.87
2018-04-07T07:01:07.360Z,19.33
2018-04-07T07:03:34.844Z,23.10
2018-04-07T07:06:02.283Z,18.70
2018-04-07T07:08:29.760Z,22.60
2018-04-07T07:10:57.220Z,25.27
2018-04-07T07:13:24.669Z,23.50
2018-04-07T07:15:52.130Z,18.43
2018-04-07T07:18:19.645Z,22.37
2018-04-07T07:20:47.118Z,18.17
2018-04-07T07:23:14.499Z,24.60
2018-04-07T07:25:42.070Z,22.33
2018-04-07T07:28:09.511Z,21.43
2018-04-07T07:30:36.972Z,20.27
2018-04-07T07:33:04.431Z,23.57
2018-04-07T07:35:31.886Z,23.93
2018-04-07T07:37:59.319Z,18.27
2018-04-07T07:40:26.796Z,23.52
2018-04-07T07:42:54.173Z,19.55
2018-04-07T07:45:21.632Z,24.57
2018-04-07T07:47:49.082Z,19.77
2018-04-07T07:50:16.633Z,21.60
2018-04-07T07:52:44.612Z,18.80
2018-04-07T07:55:12.037Z,21.97
2018-04-07T07:57:39.519Z,21.20
2018-04-07T08:00:07.693Z,30.07
2018-04-07T08:02:35.143Z,22.63
2018-04-07T08:05:02.601Z,19.93
2018-04-07T08:07:30.059Z,24.43
2018-04-07T08:09:57.524Z,19.80
2018-04-07T08:12:24.981Z,18.70
2018-04-07T08:14:52.441Z,20.50
2018-04-07T08:17:19.912Z,19.57
2018-04-07T08:19:47.376Z,20.67
2018-04-07T08:22:15.634Z,21.40
2018-04-07T08:24:43.082Z,22.57
2018-04-07T08:27:10.570Z,18.73
2018-04-07T08:29:37.998Z,23.03
2018-04-07T08:32:05.595Z,22.40
2018-04-07T08:34:33.032Z,19.17
2018-04-07T08:37:00.489Z,21.37
2018-04-07T08:39:28.451Z,21.77
2018-04-07T08:41:55.910Z,22.60
2018-04-07T08:44:23.368Z,20.70
2018-04-07T08:46:50.823Z,19.53
2018-04-07T08:49:18.379Z,18.13
2018-04-07T08:51:46.758Z,26.73
2018-04-07T08:54:14.150Z,17.73
2018-04-07T08:56:41.569Z,24.10
2018-04-07T08:59:09.043Z,19.00
2018-04-07T09:01:36.597Z,20.77
2018-04-07T09:04:04.048Z,18.05
2018-04-07T09:06:31.515Z,21.80
2018-04-07T09:08:58.963Z,17.80
2018-04-07T09:11:26.784Z,22.45
2018-04-07T09:13:54.186Z,21.33
2018-04-07T09:16:21.672Z,24.05
2018-04-07T09:18:49.053Z,23.10
2018-04-07T09:21:16.560Z,17.53
2018-04-07T09:23:43.935Z,18.63
2018-04-07T09:26:11.345Z,18.70
2018-04-07T09:28:38.742Z,19.20
2018-04-07T09:31:11.633Z,19.93
2018-04-07T09:33:39.037Z,22.43
2018-04-07T09:36:06.491Z,22.80
2018-04-07T09:38:33.890Z,18.80
2018-04-07T09:41:01.285Z,20.53
2018-04-07T09:43:28.677Z,19.10
2018-04-07T09:45:56.100Z,19.90
2018-04-07T09:48:23.502Z,21.00
2018-04-07T09:50:50.896Z,18.70
2018-04-07T09:53:19.193Z,19.00
2018-04-07T09:55:46.619Z,20.17
2018-04-07T09:58:14.111Z,18.20
2018-04-07T10:00:47.246Z,20.97
2018-04-07T10:03:21.829Z,22.10
2018-04-07T10:05:49.814Z,17.25
2018-04-07T10:08:17.561Z,15.47
2018-04-07T10:10:44.962Z,18.57
2018-04-07T10:13:12.376Z,21.80
2018-04-07T10:15:39.798Z,18.03
2018-04-07T10:18:07.221Z,21.00
2018-04-07T10:20:34.623Z,18.60
2018-04-07T10:23:02.040Z,18.03
2018-04-07T10:25:29.440Z,18.33
2018-04-07T10:27:56.846Z,17.77
2018-04-07T10:30:24.243Z,22.27
2018-04-07T10:32:51.655Z,18.47
2018-04-07T10:35:19.057Z,18.50
2018-04-07T10:37:46.462Z,18.20
2018-04-07T10:40:14.482Z,18.40
2018-04-07T10:42:41.891Z,19.60
2018-04-07T10:45:09.294Z,18.58
2018-04-07T10:47:36.702Z,18.30
2018-04-07T10:50:04.109Z,16.70
2018-04-07T10:52:31.521Z,17.77
2018-04-07T10:54:58.915Z,20.07
2018-04-07T10:57:26.325Z,19.40
2018-04-07T10:59:53.739Z,16.63
2018-04-07T11:02:22.157Z,20.10
2018-04-07T11:04:49.553Z,19.90
2018-04-07T11:07:16.971Z,13.97
2018-04-07T11:09:44.380Z,18.77
2018-04-07T11:12:11.770Z,15.87
2018-04-07T11:14:39.176Z,17.67
2018-04-07T11:17:06.569Z,15.65
2018-04-07T11:19:33.988Z,16.37
2018-04-07T11:22:01.378Z,22.57
2018-04-07T11:24:28.798Z,21.13
2018-04-07T11:26:56.185Z,19.93
2018-04-07T11:29:23.602Z,18.10
2018-04-07T11:31:50.997Z,18.07
2018-04-07T11:34:18.445Z,20.33
2018-04-07T11:36:45.818Z,19.53
2018-04-07T11:39:13.239Z,22.40
2018-04-07T11:41:40.641Z,20.40
2018-04-07T11:44:08.062Z,20.67
2018-04-07T11:46:35.451Z,24.30
2018-04-07T11:49:02.879Z,21.20
2018-04-07T11:51:30.274Z,19.27
2018-04-07T11:53:57.685Z,16.90
2018-04-07T11:56:25.083Z,22.20
2018-04-07T11:58:52.498Z,21.07
2018-04-07T12:01:19.877Z,16.30
2018-04-07T12:03:47.426Z,23.10
2018-04-07T12:06:14.814Z,20.03
2018-04-07T12:08:42.236Z,15.73
2018-04-07T12:11:09.657Z,20.27
2018-04-07T12:13:37.053Z,19.15
2018-04-07T12:16:04.458Z,20.87
2018-04-07T12:18:31.854Z,19.67
2018-04-07T12:20:59.261Z,21.55
2018-04-07T12:23:26.751Z,23.77
2018-04-07T12:25:54.146Z,16.60
2018-04-07T12:28:21.575Z,20.50
2018-04-07T12:30:49.012Z,20.23
2018-04-07T12:33:16.412Z,21.83
2018-04-07T12:35:43.821Z,18.83
2018-04-07T12:38:11.522Z,17.93
2018-04-07T12:40:38.914Z,20.33
2018-04-07T12:43:06.361Z,17.90
2018-04-07T12:45:33.798Z,18.25
2018-04-07T12:48:01.215Z,16.90
2018-04-07T12:50:28.626Z,19.10
2018-04-07T12:52:56.196Z,23.10
2018-04-07T12:55:23.629Z,19.60
2018-04-07T12:57:51.067Z,21.95
2018-04-07T13:00:18.502Z,15.10
2018-04-07T13:02:45.926Z,16.07
2018-04-07T13:05:13.330Z,17.65
2018-04-07T13:07:40.731Z,17.27
2018-04-07T13:10:08.532Z,20.33
2018-04-07T13:12:35.937Z,15.67
2018-04-07T13:15:03.329Z,16.30
2018-04-07T13:17:30.748Z,16.07
2018-04-07T13:19:58.219Z,20.50
2018-04-07T13:22:25.675Z,21.10
2018-04-07T13:24:53.121Z,15.90
2018-04-07T13:27:20.596Z,16.00
2018-04-07T13:29:47.966Z,17.60
2018-04-07T13:32:15.363Z,13.23
2018-04-07T13:34:42.763Z,13.40
2018-04-07T13:37:10.198Z,19.43
2018-04-07T13:39:37.622Z,14.83
2018-04-07T13:42:05.027Z,18.80
2018-04-07T13:44:32.466Z,15.30
2018-04-07T13:46:59.927Z,15.30
2018-04-07T13:49:27.398Z,15.25
2018-04-07T13:51:54.841Z,12.33
2018-04-07T13:54:22.291Z,11.33
2018-04-07T13:56:50.691Z,19.00
2018-04-07T13:59:18.147Z,13.30
2018-04-07T14:01:45.601Z,14.65
2018-04-07T14:04:13.070Z,11.37
2018-04-07T14:06:40.525Z,20.00
2018-04-07T14:09:07.982Z,10.98
2018-04-07T14:11:35.610Z,14.47
2018-04-07T14:14:03.002Z,12.60
2018-04-07T14:16:30.448Z,13.83
2018-04-07T14:18:58.116Z,12.23
2018-04-07T14:21:25.579Z,14.83
2018-04-07T14:23:53.022Z,11.27
2018-04-07T14:26:20.456Z,13.70
2018-04-07T14:28:47.844Z,11.60
2018-04-07T14:31:15.262Z,11.48
2018-04-07T14:33:42.650Z,10.00
2018-04-07T14:36:10.052Z,13.27
2018-04-07T14:38:37.454Z,11.50
2018-04-07T14:41:04.918Z,12.70
2018-04-07T14:43:32.391Z,11.77
2018-04-07T14:45:59.835Z,11.13
2018-04-07T14:48:27.295Z,13.43
2018-04-07T14:50:54.752Z,11.00
2018-04-07T14:53:22.210Z,9.87
2018-04-07T14:55:49.682Z,8.80
2018-04-07T14:58:17.126Z,8.87
2018-04-07T15:00:44.632Z,11.30
2018-04-07T15:03:12.070Z,8.63
2018-04-07T15:05:39.498Z,6.83
2018-04-07T15:08:06.958Z,8.20
2018-04-07T15:10:34.351Z,9.00
2018-04-07T15:13:01.742Z,8.27
2018-04-07T15:15:30.253Z,10.88
2018-04-07T15:17:57.709Z,10.60
2018-04-07T15:20:25.177Z,11.57
2018-04-07T15:22:52.625Z,10.15
2018-04-07T15:25:20.062Z,10.50
2018-04-07T15:27:47.558Z,14.30
2018-04-07T15:30:15.001Z,11.00
2018-04-07T15:32:42.457Z,11.10
2018-04-07T15:35:10.334Z,11.82
2018-04-07T15:37:37.716Z,10.83
2018-04-07T15:40:05.137Z,12.10
2018-04-07T15:42:32.594Z,13.53
2018-04-07T15:45:00.398Z,12.05
2018-04-07T15:47:27.817Z,12.87
2018-04-07T15:49:55.285Z,12.02
2018-04-07T15:52:22.734Z,15.90
2018-04-07T15:54:50.201Z,14.70
2018-04-07T15:57:17.660Z,14.00
2018-04-07T15:59:45.109Z,14.43
2018-04-07T16:02:12.583Z,12.47
2018-04-07T16:04:40.033Z,12.60
2018-04-07T16:07:07.518Z,14.30
2018-04-07T16:09:34.956Z,12.30
2018-04-07T16:12:02.418Z,15.33
2018-04-07T16:14:29.868Z,17.93
2018-04-07T16:16:57.322Z,16.13
2018-04-07T16:19:24.832Z,26.60
2018-04-07T16:21:52.230Z,17.67
2018-04-07T16:24:19.692Z,20.43
2018-04-07T16:26:47.078Z,15.30
2018-04-07T16:29:14.491Z,14.10
2018-04-07T16:31:41.888Z,13.03
2018-04-07T16:34:09.323Z,16.20
2018-04-07T16:36:36.700Z,15.63
2018-04-07T16:39:04.145Z,15.07
2018-04-07T16:41:32.004Z,15.57
2018-04-07T16:43:59.441Z,15.40
2018-04-07T16:46:26.822Z,15.53
2018-04-07T16:48:54.297Z,14.20
2018-04-07T16:51:21.722Z,15.50
2018-04-07T16:53:49.194Z,12.82
2018-04-07T16:56:16.647Z,14.03
2018-04-07T16:58:44.098Z,11.83
2018-04-07T17:01:11.554Z,15.80
2018-04-07T17:03:39.006Z,11.57
2018-04-07T17:06:06.488Z,12.77
2018-04-07T17:08:33.946Z,14.63
2018-04-07T17:11:01.400Z,12.63
2018-04-07T17:13:29.774Z,14.45
2018-04-07T17:15:57.237Z,13.30
2018-04-07T17:18:24.695Z,12.23
2018-04-07T17:20:52.256Z,13.07
2018-04-07T17:23:19.707Z,13.40
2018-04-07T17:25:47.091Z,12.13
2018-04-07T17:28:14.529Z,13.57
2018-04-07T17:30:42.400Z,10.63
2018-04-07T17:33:09.840Z,10.10
2018-04-07T17:35:37.817Z,8.70
2018-04-07T17:38:05.282Z,11.57
2018-04-07T17:40:33.636Z,9.45
2018-04-07T17:43:01.101Z,8.87
2018-04-07T17:45:28.575Z,13.60
2018-04-07T17:47:56.033Z,11.37
2018-04-07T17:50:23.460Z,10.80
2018-04-07T17:52:51.038Z,8.77
2018-04-07T17:55:18.497Z,9.20
2018-04-07T17:57:45.918Z,11.57
2018-04-07T18:00:13.325Z,10.07
2018-04-07T18:02:40.787Z,10.67
2018-04-07T18:05:08.337Z,12.57
2018-04-07T18:07:35.709Z,8.17
2018-04-07T18:10:03.154Z,11.17
2018-04-07T18:12:30.615Z,8.32
2018-04-07T18:14:58.173Z,11.87
2018-04-07T18:17:25.617Z,8.23
2018-04-07T18:19:53.082Z,11.33
2018-04-07T18:22:20.452Z,13.80
2018-04-07T18:24:48.019Z,9.60
2018-04-07T18:27:15.449Z,9.33
2018-04-07T18:29:42.930Z,12.63
2018-04-07T18:32:10.372Z,9.80
2018-04-07T18:34:37.829Z,5.87
2018-04-07T18:37:05.491Z,7.43
2018-04-07T18:39:33.046Z,7.33
2018-04-07T18:42:00.508Z,5.87
2018-04-07T18:44:30.930Z,5.83
2018-04-07T18:46:58.398Z,12.43
2018-04-07T18:49:25.846Z,8.97
2018-04-07T18:51:53.420Z,10.53
2018-04-07T18:54:20.872Z,5.80
2018-04-07T18:56:48.258Z,9.87
2018-04-07T18:59:15.674Z,14.43
2018-04-07T19:01:43.238Z,13.57
2018-04-07T19:04:10.657Z,9.13
2018-04-07T19:06:38.064Z,7.63
2018-04-07T19:09:06.578Z,14.70
2018-04-07T19:11:34.005Z,7.53
2018-04-07T19:14:01.381Z,7.17
2018-04-07T19:16:28.906Z,7.00
2018-04-07T19:18:56.280Z,6.90
2018-04-07T19:21:23.681Z,8.13
2018-04-07T19:23:51.090Z,14.80
2018-04-07T19:26:18.680Z,10.40
2018-04-07T19:28:46.086Z,12.93
2018-04-07T19:31:13.487Z,8.70
2018-04-07T19:33:40.898Z,9.97
2018-04-07T19:36:09.171Z,14.95
2018-04-07T19:38:37.576Z,11.32
2018-04-07T19:41:04.961Z,8.53
2018-04-07T19:43:32.347Z,11.37
2018-04-07T19:45:59.760Z,10.60
2018-04-07T19:48:27.161Z,16.77
2018-04-07T19:50:54.553Z,11.03
2018-04-07T19:53:21.953Z,12.05
2018-04-07T19:55:49.343Z,11.93
2018-04-07T19:58:16.746Z,10.43
2018-04-07T20:00:44.155Z,13.00
2018-04-07T20:03:11.553Z,11.40
2018-04-07T20:05:38.974Z,13.80
2018-04-07T20:08:06.391Z,12.13
2018-04-07T20:10:33.800Z,11.07
2018-04-07T20:13:01.198Z,16.73
2018-04-07T20:15:28.622Z,12.47
2018-04-07T20:17:56.031Z,17.80
2018-04-07T20:20:23.452Z,13.63
2018-04-07T20:22:50.833Z,14.90
2018-04-07T20:25:18.231Z,15.47
2018-04-07T20:27:45.642Z,18.40
2018-04-07T20:30:13.048Z,14.23
2018-04-07T20:32:40.455Z,14.03
2018-04-07T20:35:07.846Z,16.70
2018-04-07T20:37:35.249Z,15.00
2018-04-07T20:40:02.654Z,15.50
2018-04-07T20:42:30.067Z,14.27
2018-04-07T20:44:57.463Z,15.23
2018-04-07T20:47:24.879Z,15.23
2018-04-07T20:49:52.299Z,20.00
2018-04-07T20:52:19.687Z,14.33
2018-04-07T20:54:47.146Z,13.95
2018-04-07T20:57:14.511Z,18.30
2018-04-07T20:59:41.925Z,15.57
2018-04-07T21:02:09.314Z,14.98
2018-04-07T21:04:36.726Z,12.00
2018-04-07T21:07:04.117Z,17.17
2018-04-07T21:09:31.527Z,11.30
2018-04-07T21:11:58.928Z,9.20
2018-04-07T21:14:26.329Z,13.53
2018-04-07T21:16:53.733Z,10.03
2018-04-07T21:19:21.145Z,15.30
2018-04-07T21:21:48.548Z,13.70
2018-04-07T21:24:15.946Z,14.23
2018-04-07T21:26:43.792Z,13.80
2018-04-07T21:29:11.575Z,14.82
2018-04-07T21:31:38.998Z,18.53
2018-04-07T21:34:06.425Z,18.53
2018-04-07T21:36:33.815Z,15.60
2018-04-07T21:39:01.469Z,15.63
2018-04-07T21:41:28.872Z,16.37
2018-04-07T21:43:56.281Z,10.87
2018-04-07T21:46:23.675Z,20.67
2018-04-07T21:48:51.090Z,18.95
2018-04-07T21:51:18.518Z,19.27
2018-04-07T21:53:45.919Z,14.80
2018-04-07T21:56:13.310Z,16.00
2018-04-07T21:58:40.733Z,15.60
2018-04-07T22:02:38.104Z,17.10
2018-04-07T22:05:05.534Z,14.50
2018-04-07T22:07:32.939Z,15.20
2018-04-07T22:10:00.345Z,18.20
2018-04-07T22:12:27.736Z,18.20
2018-04-07T22:14:55.137Z,17.43
2018-04-07T22:17:22.541Z,13.73
2018-04-07T22:19:49.975Z,15.87
2018-04-07T22:22:17.411Z,11.82
2018-04-07T22:24:44.826Z,18.97
2018-04-07T22:27:12.231Z,16.23
2018-04-07T22:29:39.630Z,16.10
2018-04-07T22:32:07.097Z,15.67
2018-04-07T22:34:34.530Z,21.63
2018-04-07T22:37:01.915Z,16.40
2018-04-07T22:39:29.340Z,11.83
2018-04-07T22:41:56.784Z,18.47
2018-04-07T22:44:24.182Z,19.17
2018-04-07T22:46:51.603Z,15.20
2018-04-07T22:49:18.985Z,14.93
2018-04-07T22:51:46.393Z,16.45
2018-04-07T22:54:14.720Z,26.42
2018-04-07T22:56:42.150Z,16.47
2018-04-07T22:59:09.583Z,18.77
2018-04-07T23:01:36.986Z,16.73
2018-04-07T23:04:04.382Z,15.37
2018-04-07T23:06:31.815Z,18.10
2018-04-07T23:08:59.206Z,18.07
2018-04-07T23:11:26.627Z,24.43
2018-04-07T23:13:54.062Z,19.93
2018-04-07T23:16:21.510Z,18.80
2018-04-07T23:18:48.958Z,15.30
2018-04-07T23:21:16.434Z,20.90
2018-04-07T23:23:43.898Z,27.13
2018-04-07T23:26:11.349Z,20.43
2018-04-07T23:28:38.821Z,19.27
2018-04-07T23:31:06.264Z,23.67
2018-04-07T23:33:33.730Z,20.30
2018-04-07T23:36:01.188Z,20.73
2018-04-07T23:38:28.647Z,19.20
2018-04-07T23:40:56.099Z,20.37
2018-04-07T23:43:23.564Z,17.23
2018-04-07T23:45:51.911Z,15.47
2018-04-07T23:48:19.376Z,21.83
2018-04-07T23:50:46.854Z,18.60
2018-04-07T23:53:14.299Z,19.00
2018-04-07T23:55:41.770Z,19.37
2018-04-07T23:58:09.226Z,19.00
